sensor_id;sensor_type;location;lat;lon;timestamp;pressure;altitude;pressure_sealevel;temperature;humidity
13661;BME280;6903;49.480;11.102;2023-03-25T00:00:54;97175.44;;;10.75;100.00
13661;BME280;6903;49.480;11.102;2023-03-25T00:03:22;97178.13;;;10.47;100.00
13661;BME280;6903;49.480;11.102;2023-03-25T00:05:48;97169.13;;;10.30;100.00
13661;BME280;6903;49.480;11.102;2023-03-25T00:08:13;97158.88;;;10.18;100.00
13661;BME280;6903;49.480;11.102;2023-03-25T00:10:39;97153.59;;;10.08;100.00
13661;BME280;6903;49.480;11.102;2023-03-25T00:13:04;97152.84;;;9.96;100.00
13661;BME280;6903;49.480;11.102;2023-03-25T00:15:32;97164.91;;;9.89;100.00
13661;BME280;6903;49.480;11.102;2023-03-25T00:18:00;97167.25;;;9.83;100.00
13661;BME280;6903;49.480;11.102;2023-03-25T00:20:26;97155.34;;;9.79;100.00
13661;BME280;6903;49.480;11.102;2023-03-25T00:22:52;97158.25;;;9.76;100.00
13661;BME280;6903;49.480;11.102;2023-03-25T00:25:18;97155.19;;;9.71;100.00
13661;BME280;6903;49.480;11.102;2023-03-25T00:27:45;97158.34;;;9.65;100.00
13661;BME280;6903;49.480;11.102;2023-03-25T00:30:13;97150.72;;;9.62;100.00
13661;BME280;6903;49.480;11.102;2023-03-25T00:32:38;97146.56;;;9.59;100.00
13661;BME280;6903;49.480;11.102;2023-03-25T00:35:05;97136.31;;;9.56;100.00
13661;BME280;6903;49.480;11.102;2023-03-25T00:37:30;97140.03;;;9.54;100.00
13661;BME280;6903;49.480;11.102;2023-03-25T00:39:55;97140.03;;;9.54;100.00
13661;BME280;6903;49.480;11.102;2023-03-25T00:42:21;97140.03;;;9.54;100.00
13661;BME280;6903;49.480;11.102;2023-03-25T00:44:50;97140.03;;;9.54;100.00
13661;BME280;6903;49.480;11.102;2023-03-25T00:47:15;97126.44;;;9.49;100.00
13661;BME280;6903;49.480;11.102;2023-03-25T00:49:43;97126.44;;;9.49;100.00
13661;BME280;6903;49.480;11.102;2023-03-25T00:52:08;97118.41;;;9.50;100.00
13661;BME280;6903;49.480;11.102;2023-03-25T00:54:33;97118.41;;;9.50;100.00
13661;BME280;6903;49.480;11.102;2023-03-25T00:56:59;97117.75;;;9.48;100.00
13661;BME280;6903;49.480;11.102;2023-03-25T00:59:24;97123.94;;;9.47;100.00
13661;BME280;6903;49.480;11.102;2023-03-25T01:01:50;97125.09;;;9.54;100.00
13661;BME280;6903;49.480;11.102;2023-03-25T01:04:17;97133.41;;;9.59;100.00
13661;BME280;6903;49.480;11.102;2023-03-25T01:06:43;97143.09;;;9.59;100.00
13661;BME280;6903;49.480;11.102;2023-03-25T01:09:11;97146.13;;;9.54;100.00
13661;BME280;6903;49.480;11.102;2023-03-25T01:11:42;97147.63;;;9.47;100.00
13661;BME280;6903;49.480;11.102;2023-03-25T01:14:12;97108.44;;;9.44;100.00
13661;BME280;6903;49.480;11.102;2023-03-25T01:16:38;97095.00;;;9.38;100.00
13661;BME280;6903;49.480;11.102;2023-03-25T01:19:03;97115.75;;;9.31;100.00
13661;BME280;6903;49.480;11.102;2023-03-25T01:21:29;97115.75;;;9.31;100.00
13661;BME280;6903;49.480;11.102;2023-03-25T01:23:57;97115.75;;;9.31;100.00
13661;BME280;6903;49.480;11.102;2023-03-25T01:26:23;97120.00;;;9.13;100.00
13661;BME280;6903;49.480;11.102;2023-03-25T01:28:48;97123.56;;;9.12;100.00
13661;BME280;6903;49.480;11.102;2023-03-25T01:31:14;97124.56;;;9.11;100.00
13661;BME280;6903;49.480;11.102;2023-03-25T01:33:40;97124.56;;;9.11;100.00
13661;BME280;6903;49.480;11.102;2023-03-25T01:36:06;97128.97;;;9.11;100.00
13661;BME280;6903;49.480;11.102;2023-03-25T01:38:34;97128.97;;;9.11;100.00
13661;BME280;6903;49.480;11.102;2023-03-25T01:41:01;97124.25;;;9.05;100.00
13661;BME280;6903;49.480;11.102;2023-03-25T01:43:26;97124.25;;;9.05;100.00
13661;BME280;6903;49.480;11.102;2023-03-25T01:45:52;97121.91;;;9.02;100.00
13661;BME280;6903;49.480;11.102;2023-03-25T01:48:37;97121.91;;;9.02;100.00
13661;BME280;6903;49.480;11.102;2023-03-25T01:51:11;97112.28;;;8.91;100.00
13661;BME280;6903;49.480;11.102;2023-03-25T01:53:39;74469.97;;;-141.35;100.00
13661;BME280;6903;49.480;11.102;2023-03-25T01:56:06;97112.28;;;8.91;100.00
13661;BME280;6903;49.480;11.102;2023-03-25T01:58:34;97112.28;;;8.91;100.00
13661;BME280;6903;49.480;11.102;2023-03-25T02:01:00;97112.28;;;8.91;100.00
13661;BME280;6903;49.480;11.102;2023-03-25T02:03:26;97112.28;;;8.91;100.00
13661;BME280;6903;49.480;11.102;2023-03-25T02:06:06;97112.28;;;8.91;100.00
13661;BME280;6903;49.480;11.102;2023-03-25T02:08:36;97112.28;;;8.91;100.00
13661;BME280;6903;49.480;11.102;2023-03-25T02:11:04;97112.28;;;8.91;100.00
13661;BME280;6903;49.480;11.102;2023-03-25T02:13:30;97112.28;;;8.91;100.00
13661;BME280;6903;49.480;11.102;2023-03-25T02:16:09;97112.28;;;8.91;100.00
13661;BME280;6903;49.480;11.102;2023-03-25T02:21:47;97112.28;;;8.91;100.00
13661;BME280;6903;49.480;11.102;2023-03-25T02:24:23;97112.28;;;8.91;100.00
13661;BME280;6903;49.480;11.102;2023-03-25T02:27:13;97112.28;;;8.91;100.00
13661;BME280;6903;49.480;11.102;2023-03-25T02:30:04;97112.28;;;8.91;100.00
13661;BME280;6903;49.480;11.102;2023-03-25T02:41:19;97112.28;;;8.91;100.00
13661;BME280;6903;49.480;11.102;2023-03-25T02:44:06;97112.28;;;8.91;100.00
13661;BME280;6903;49.480;11.102;2023-03-25T02:46:33;97112.28;;;8.91;100.00
13661;BME280;6903;49.480;11.102;2023-03-25T02:49:05;97112.28;;;8.91;100.00
13661;BME280;6903;49.480;11.102;2023-03-25T02:51:40;97112.28;;;8.91;100.00
13661;BME280;6903;49.480;11.102;2023-03-25T02:54:11;74469.97;;;-141.35;100.00
13661;BME280;6903;49.480;11.102;2023-03-25T02:56:39;97112.28;;;8.91;100.00
13661;BME280;6903;49.480;11.102;2023-03-25T02:59:07;97112.28;;;8.91;100.00
13661;BME280;6903;49.480;11.102;2023-03-25T03:01:34;127260.69;;;-141.35;100.00
13661;BME280;6903;49.480;11.102;2023-03-25T03:04:00;74469.97;;;-141.35;100.00
13661;BME280;6903;49.480;11.102;2023-03-25T03:06:26;97112.28;;;8.91;100.00
13661;BME280;6903;49.480;11.102;2023-03-25T03:09:05;97112.28;;;8.91;100.00
13661;BME280;6903;49.480;11.102;2023-03-25T03:12:01;97112.28;;;8.91;100.00
13661;BME280;6903;49.480;11.102;2023-03-25T03:17:26;74469.97;;;-141.35;100.00
13661;BME280;6903;49.480;11.102;2023-03-25T03:19:59;97112.28;;;8.91;100.00
13661;BME280;6903;49.480;11.102;2023-03-25T03:27:48;97112.28;;;8.91;100.00
13661;BME280;6903;49.480;11.102;2023-03-25T03:33:19;97112.28;;;8.91;100.00
13661;BME280;6903;49.480;11.102;2023-03-25T03:35:57;74469.97;;;-141.35;100.00
13661;BME280;6903;49.480;11.102;2023-03-25T03:38:29;74469.97;;;-141.35;100.00
13661;BME280;6903;49.480;11.102;2023-03-25T03:40:59;97112.28;;;8.91;100.00
13661;BME280;6903;49.480;11.102;2023-03-25T03:43:37;74469.97;;;-141.35;100.00
13661;BME280;6903;49.480;11.102;2023-03-25T03:46:06;97112.28;;;8.91;100.00
13661;BME280;6903;49.480;11.102;2023-03-25T03:48:41;97112.28;;;8.91;100.00
13661;BME280;6903;49.480;11.102;2023-03-25T03:51:12;97112.28;;;8.91;100.00
13661;BME280;6903;49.480;11.102;2023-03-25T03:53:42;97112.28;;;8.91;100.00
13661;BME280;6903;49.480;11.102;2023-03-25T03:56:14;74469.97;;;-141.35;100.00
13661;BME280;6903;49.480;11.102;2023-03-25T04:01:20;97112.28;;;8.91;100.00
13661;BME280;6903;49.480;11.102;2023-03-25T04:03:55;97112.28;;;8.91;100.00
13661;BME280;6903;49.480;11.102;2023-03-25T04:06:50;97112.28;;;8.91;100.00
13661;BME280;6903;49.480;11.102;2023-03-25T04:09:32;97112.28;;;8.91;100.00
13661;BME280;6903;49.480;11.102;2023-03-25T04:14:34;97112.28;;;8.91;100.00
13661;BME280;6903;49.480;11.102;2023-03-25T04:17:00;97112.28;;;8.91;100.00
13661;BME280;6903;49.480;11.102;2023-03-25T04:19:25;74469.97;;;-141.35;100.00
13661;BME280;6903;49.480;11.102;2023-03-25T04:21:51;97112.28;;;8.91;100.00
13661;BME280;6903;49.480;11.102;2023-03-25T04:24:16;97112.28;;;8.91;100.00
13661;BME280;6903;49.480;11.102;2023-03-25T04:26:44;74469.97;;;-141.35;100.00
13661;BME280;6903;49.480;11.102;2023-03-25T04:29:09;97112.28;;;8.91;100.00
13661;BME280;6903;49.480;11.102;2023-03-25T04:31:38;97112.28;;;8.91;100.00
13661;BME280;6903;49.480;11.102;2023-03-25T04:34:09;97112.28;;;8.91;100.00
13661;BME280;6903;49.480;11.102;2023-03-25T04:36:35;97112.28;;;8.91;100.00
13661;BME280;6903;49.480;11.102;2023-03-25T04:39:06;97112.28;;;8.91;100.00
13661;BME280;6903;49.480;11.102;2023-03-25T04:41:31;97112.28;;;8.91;100.00
13661;BME280;6903;49.480;11.102;2023-03-25T04:43:57;97112.28;;;8.91;100.00
13661;BME280;6903;49.480;11.102;2023-03-25T04:46:23;74469.97;;;-141.35;100.00
13661;BME280;6903;49.480;11.102;2023-03-25T04:48:48;97112.28;;;8.91;100.00
13661;BME280;6903;49.480;11.102;2023-03-25T04:51:14;97112.28;;;8.91;100.00
13661;BME280;6903;49.480;11.102;2023-03-25T04:53:40;97112.28;;;8.91;100.00
13661;BME280;6903;49.480;11.102;2023-03-25T04:56:07;97112.28;;;8.91;100.00
13661;BME280;6903;49.480;11.102;2023-03-25T04:58:37;74469.97;;;-141.35;100.00
13661;BME280;6903;49.480;11.102;2023-03-25T05:01:03;97112.28;;;8.91;100.00
13661;BME280;6903;49.480;11.102;2023-03-25T05:03:33;97112.28;;;8.91;100.00
13661;BME280;6903;49.480;11.102;2023-03-25T05:05:59;97112.28;;;8.91;100.00
13661;BME280;6903;49.480;11.102;2023-03-25T05:08:24;97112.28;;;8.91;100.00
13661;BME280;6903;49.480;11.102;2023-03-25T05:13:15;97112.28;;;8.91;100.00
13661;BME280;6903;49.480;11.102;2023-03-25T05:15:40;74469.97;;;-141.35;100.00
13661;BME280;6903;49.480;11.102;2023-03-25T05:18:08;74469.97;;;-141.35;100.00
13661;BME280;6903;49.480;11.102;2023-03-25T05:20:36;58397.03;;;-141.35;100.00
13661;BME280;6903;49.480;11.102;2023-03-25T05:25:29;97112.28;;;8.91;100.00
13661;BME280;6903;49.480;11.102;2023-03-25T05:27:58;74469.97;;;-141.35;100.00
13661;BME280;6903;49.480;11.102;2023-03-25T05:30:24;74469.97;;;-141.35;100.00
13661;BME280;6903;49.480;11.102;2023-03-25T05:32:57;74469.97;;;-141.35;100.00
13661;BME280;6903;49.480;11.102;2023-03-25T05:37:50;97112.28;;;8.91;100.00
13661;BME280;6903;49.480;11.102;2023-03-25T05:40:16;74469.97;;;-141.35;100.00
13661;BME280;6903;49.480;11.102;2023-03-25T05:42:42;74469.97;;;-141.35;100.00
13661;BME280;6903;49.480;11.102;2023-03-25T05:45:14;58397.03;;;-141.35;nan
13661;BME280;6903;49.480;11.102;2023-03-25T05:47:40;112851.00;;;-141.35;100.00
13661;BME280;6903;49.480;11.102;2023-03-25T05:50:05;97112.28;;;8.91;100.00
13661;BME280;6903;49.480;11.102;2023-03-25T05:52:32;74469.97;;;-141.35;100.00
13661;BME280;6903;49.480;11.102;2023-03-25T05:57:22;-18581.13;;;-141.35;0.00
13661;BME280;6903;49.480;11.102;2023-03-25T05:59:48;112851.00;;;-141.35;100.00
13661;BME280;6903;49.480;11.102;2023-03-25T06:07:07;58397.03;;;-141.35;nan
13661;BME280;6903;49.480;11.102;2023-03-25T06:09:41;58397.03;;;-141.35;100.00
13661;BME280;6903;49.480;11.102;2023-03-25T06:12:13;112851.00;;;-141.35;100.00
13661;BME280;6903;49.480;11.102;2023-03-25T06:14:39;58397.03;;;-141.35;100.00
13661;BME280;6903;49.480;11.102;2023-03-25T06:17:08;58397.03;;;-141.35;100.00
13661;BME280;6903;49.480;11.102;2023-03-25T06:22:03;192063.84;;;-141.35;100.00
13661;BME280;6903;49.480;11.102;2023-03-25T06:26:54;58397.03;;;-141.35;nan
13661;BME280;6903;49.480;11.102;2023-03-25T06:29:20;112851.00;;;-141.35;100.00
13661;BME280;6903;49.480;11.102;2023-03-25T06:31:45;58397.03;;;-141.35;100.00
13661;BME280;6903;49.480;11.102;2023-03-25T06:34:11;58397.03;;;-141.35;nan
13661;BME280;6903;49.480;11.102;2023-03-25T06:36:36;58397.03;;;-141.35;100.00
13661;BME280;6903;49.480;11.102;2023-03-25T06:39:01;58397.03;;;-141.35;100.00
13661;BME280;6903;49.480;11.102;2023-03-25T06:41:29;58397.03;;;-141.35;100.00
13661;BME280;6903;49.480;11.102;2023-03-25T06:43:54;58397.03;;;-141.35;0.00
13661;BME280;6903;49.480;11.102;2023-03-25T06:46:19;-18581.13;;;-141.35;100.00
13661;BME280;6903;49.480;11.102;2023-03-25T06:53:35;58397.03;;;-141.35;nan
13661;BME280;6903;49.480;11.102;2023-03-25T06:56:01;58397.03;;;-141.35;0.00
13661;BME280;6903;49.480;11.102;2023-03-25T06:58:26;58397.03;;;-141.35;0.00
13661;BME280;6903;49.480;11.102;2023-03-25T07:00:59;58397.03;;;-141.35;100.00
13661;BME280;6903;49.480;11.102;2023-03-25T07:03:28;-18581.13;;;-141.35;100.00
13661;BME280;6903;49.480;11.102;2023-03-25T07:05:53;58397.03;;;-141.35;nan
13661;BME280;6903;49.480;11.102;2023-03-25T07:08:18;112851.00;;;-141.35;100.00
13661;BME280;6903;49.480;11.102;2023-03-25T07:10:44;58397.03;;;-141.35;100.00
13661;BME280;6903;49.480;11.102;2023-03-25T07:13:10;58397.03;;;-141.35;100.00
13661;BME280;6903;49.480;11.102;2023-03-25T07:15:35;58397.03;;;-141.35;100.00
13661;BME280;6903;49.480;11.102;2023-03-25T07:18:01;58397.03;;;-141.35;nan
13661;BME280;6903;49.480;11.102;2023-03-25T07:20:26;58397.03;;;-141.35;100.00
13661;BME280;6903;49.480;11.102;2023-03-25T07:22:53;58397.03;;;-141.35;100.00
13661;BME280;6903;49.480;11.102;2023-03-25T07:25:19;58397.03;;;-141.35;0.00
13661;BME280;6903;49.480;11.102;2023-03-25T07:27:44;58397.03;;;-141.35;100.00
13661;BME280;6903;49.480;11.102;2023-03-25T07:30:10;58397.03;;;-141.35;100.00
13661;BME280;6903;49.480;11.102;2023-03-25T07:32:35;58397.03;;;-141.35;nan
13661;BME280;6903;49.480;11.102;2023-03-25T07:35:00;112851.00;;;-141.35;100.00
13661;BME280;6903;49.480;11.102;2023-03-25T07:37:26;58397.03;;;-141.35;100.00
13661;BME280;6903;49.480;11.102;2023-03-25T07:39:51;58397.03;;;-141.35;100.00
13661;BME280;6903;49.480;11.102;2023-03-25T07:42:16;58397.03;;;-141.35;100.00
13661;BME280;6903;49.480;11.102;2023-03-25T07:44:42;58397.03;;;-141.35;100.00
13661;BME280;6903;49.480;11.102;2023-03-25T07:47:07;74469.97;;;-141.35;100.00
13661;BME280;6903;49.480;11.102;2023-03-25T07:54:23;74469.97;;;-141.35;100.00
13661;BME280;6903;49.480;11.102;2023-03-25T08:01:40;58397.03;;;-141.35;nan
13661;BME280;6903;49.480;11.102;2023-03-25T08:04:05;112851.00;;;-141.35;100.00
13661;BME280;6903;49.480;11.102;2023-03-25T08:08:56;74469.97;;;-141.35;100.00
13661;BME280;6903;49.480;11.102;2023-03-25T08:13:46;58397.03;;;-141.35;nan
13661;BME280;6903;49.480;11.102;2023-03-25T08:16:13;58397.03;;;-141.35;0.00
13661;BME280;6903;49.480;11.102;2023-03-25T08:18:39;58397.03;;;-141.35;0.00
13661;BME280;6903;49.480;11.102;2023-03-25T08:21:04;112851.00;;;-141.35;100.00
13661;BME280;6903;49.480;11.102;2023-03-25T08:23:30;97112.28;;;8.91;100.00
13661;BME280;6903;49.480;11.102;2023-03-25T08:28:21;74469.97;;;-141.35;100.00
13661;BME280;6903;49.480;11.102;2023-03-25T08:30:48;97112.28;;;8.91;100.00
13661;BME280;6903;49.480;11.102;2023-03-25T08:33:14;97112.28;;;8.91;100.00
13661;BME280;6903;49.480;11.102;2023-03-25T08:35:41;97112.28;;;8.91;100.00
13661;BME280;6903;49.480;11.102;2023-03-25T08:38:07;97112.28;;;8.91;100.00
13661;BME280;6903;49.480;11.102;2023-03-25T08:40:34;97240.78;;;12.10;100.00
13661;BME280;6903;49.480;11.102;2023-03-25T08:43:02;97235.28;;;12.21;100.00
13661;BME280;6903;49.480;11.102;2023-03-25T08:45:28;97237.72;;;12.50;100.00
13661;BME280;6903;49.480;11.102;2023-03-25T08:47:53;97242.09;;;12.76;100.00
13661;BME280;6903;49.480;11.102;2023-03-25T08:50:18;97234.84;;;12.78;100.00
13661;BME280;6903;49.480;11.102;2023-03-25T08:52:43;97234.75;;;12.88;100.00
13661;BME280;6903;49.480;11.102;2023-03-25T08:55:10;97234.13;;;12.94;100.00
13661;BME280;6903;49.480;11.102;2023-03-25T08:57:36;97224.50;;;12.85;100.00
13661;BME280;6903;49.480;11.102;2023-03-25T09:00:05;97229.47;;;12.88;100.00
13661;BME280;6903;49.480;11.102;2023-03-25T09:02:37;97229.00;;;12.93;100.00
13661;BME280;6903;49.480;11.102;2023-03-25T09:05:02;97224.19;;;13.06;100.00
13661;BME280;6903;49.480;11.102;2023-03-25T09:07:28;97221.00;;;13.28;100.00
13661;BME280;6903;49.480;11.102;2023-03-25T09:09:54;97226.75;;;13.49;100.00
13661;BME280;6903;49.480;11.102;2023-03-25T09:12:19;97215.78;;;13.77;100.00
13661;BME280;6903;49.480;11.102;2023-03-25T09:14:44;97215.41;;;13.98;100.00
13661;BME280;6903;49.480;11.102;2023-03-25T09:17:10;97220.72;;;14.06;100.00
13661;BME280;6903;49.480;11.102;2023-03-25T09:19:35;97200.16;;;14.08;98.73
13661;BME280;6903;49.480;11.102;2023-03-25T09:22:02;97214.78;;;14.12;99.51
13661;BME280;6903;49.480;11.102;2023-03-25T09:24:27;97204.69;;;14.23;98.53
13661;BME280;6903;49.480;11.102;2023-03-25T09:26:52;97211.72;;;14.41;94.80
13661;BME280;6903;49.480;11.102;2023-03-25T09:29:18;97202.28;;;14.54;89.28
13661;BME280;6903;49.480;11.102;2023-03-25T09:31:43;97203.59;;;14.58;85.80
13661;BME280;6903;49.480;11.102;2023-03-25T09:34:08;97202.63;;;14.83;83.29
13661;BME280;6903;49.480;11.102;2023-03-25T09:36:34;97205.94;;;14.85;83.83
13661;BME280;6903;49.480;11.102;2023-03-25T09:38:59;97191.00;;;15.08;84.77
13661;BME280;6903;49.480;11.102;2023-03-25T09:41:53;97192.97;;;15.14;77.89
13661;BME280;6903;49.480;11.102;2023-03-25T09:44:34;97201.94;;;15.21;76.05
13661;BME280;6903;49.480;11.102;2023-03-25T09:47:02;97206.56;;;15.27;76.32
13661;BME280;6903;49.480;11.102;2023-03-25T09:49:43;97207.59;;;15.18;74.88
13661;BME280;6903;49.480;11.102;2023-03-25T09:55:19;97204.13;;;14.94;74.90
13661;BME280;6903;49.480;11.102;2023-03-25T09:57:46;97207.28;;;14.81;73.49
13661;BME280;6903;49.480;11.102;2023-03-25T10:00:18;97200.47;;;14.79;76.57
13661;BME280;6903;49.480;11.102;2023-03-25T10:02:48;97192.81;;;14.84;77.50
13661;BME280;6903;49.480;11.102;2023-03-25T10:08:11;97186.34;;;15.10;72.71
13661;BME280;6903;49.480;11.102;2023-03-25T10:10:53;97185.66;;;15.24;71.85
13661;BME280;6903;49.480;11.102;2023-03-25T10:19:53;97187.28;;;16.27;69.95
13661;BME280;6903;49.480;11.102;2023-03-25T10:22:27;97174.75;;;16.80;68.44
13661;BME280;6903;49.480;11.102;2023-03-25T10:25:01;97172.41;;;17.00;65.86
13661;BME280;6903;49.480;11.102;2023-03-25T10:27:44;97170.47;;;16.94;64.33
13661;BME280;6903;49.480;11.102;2023-03-25T10:30:19;97166.72;;;16.66;64.77
13661;BME280;6903;49.480;11.102;2023-03-25T10:32:52;97168.53;;;16.43;64.39
13661;BME280;6903;49.480;11.102;2023-03-25T10:35:23;97167.03;;;16.18;65.98
13661;BME280;6903;49.480;11.102;2023-03-25T10:37:52;97155.81;;;16.00;67.96
13661;BME280;6903;49.480;11.102;2023-03-25T10:40:32;97160.34;;;15.61;69.18
13661;BME280;6903;49.480;11.102;2023-03-25T10:43:26;97167.59;;;15.04;74.45
13661;BME280;6903;49.480;11.102;2023-03-25T10:45:57;97174.59;;;14.81;84.73
13661;BME280;6903;49.480;11.102;2023-03-25T10:48:27;97173.72;;;14.32;100.00
13661;BME280;6903;49.480;11.102;2023-03-25T10:51:02;97164.00;;;13.83;100.00
13661;BME280;6903;49.480;11.102;2023-03-25T10:53:28;97167.88;;;13.63;100.00
13661;BME280;6903;49.480;11.102;2023-03-25T10:55:58;97160.22;;;13.52;100.00
13661;BME280;6903;49.480;11.102;2023-03-25T10:58:26;97154.09;;;13.43;100.00
13661;BME280;6903;49.480;11.102;2023-03-25T11:00:51;97148.31;;;13.48;100.00
13661;BME280;6903;49.480;11.102;2023-03-25T11:03:22;97141.25;;;13.72;100.00
13661;BME280;6903;49.480;11.102;2023-03-25T11:05:49;97138.53;;;13.90;100.00
13661;BME280;6903;49.480;11.102;2023-03-25T11:08:17;97134.19;;;13.89;100.00
13661;BME280;6903;49.480;11.102;2023-03-25T11:10:49;97147.44;;;13.89;100.00
13661;BME280;6903;49.480;11.102;2023-03-25T11:13:23;97156.41;;;13.13;100.00
13661;BME280;6903;49.480;11.102;2023-03-25T11:15:51;97167.63;;;12.28;100.00
13661;BME280;6903;49.480;11.102;2023-03-25T11:18:26;97181.75;;;11.48;100.00
13661;BME280;6903;49.480;11.102;2023-03-25T11:21:00;97208.75;;;10.76;100.00
13661;BME280;6903;49.480;11.102;2023-03-25T11:23:30;97219.25;;;9.90;100.00
13661;BME280;6903;49.480;11.102;2023-03-25T11:26:01;97238.16;;;9.35;100.00
13661;BME280;6903;49.480;11.102;2023-03-25T11:28:38;97224.19;;;8.84;100.00
13661;BME280;6903;49.480;11.102;2023-03-25T11:31:19;97236.44;;;8.53;100.00
13661;BME280;6903;49.480;11.102;2023-03-25T11:33:59;97236.91;;;8.47;100.00
13661;BME280;6903;49.480;11.102;2023-03-25T11:36:29;97225.91;;;8.74;100.00
13661;BME280;6903;49.480;11.102;2023-03-25T11:38:57;97215.94;;;9.19;100.00
13661;BME280;6903;49.480;11.102;2023-03-25T11:41:27;97213.22;;;9.69;100.00
13661;BME280;6903;49.480;11.102;2023-03-25T11:43:53;97210.09;;;10.04;100.00
13661;BME280;6903;49.480;11.102;2023-03-25T11:46:19;97194.75;;;10.38;100.00
13661;BME280;6903;49.480;11.102;2023-03-25T11:48:46;97182.53;;;10.75;100.00
13661;BME280;6903;49.480;11.102;2023-03-25T11:51:21;97180.50;;;11.05;100.00
13661;BME280;6903;49.480;11.102;2023-03-25T11:53:54;97183.72;;;11.36;100.00
13661;BME280;6903;49.480;11.102;2023-03-25T11:56:32;97171.50;;;11.72;100.00
13661;BME280;6903;49.480;11.102;2023-03-25T11:58:59;97170.72;;;12.06;100.00
13661;BME280;6903;49.480;11.102;2023-03-25T12:01:29;97165.00;;;12.28;100.00
13661;BME280;6903;49.480;11.102;2023-03-25T12:04:19;97164.50;;;12.68;100.00
13661;BME280;6903;49.480;11.102;2023-03-25T12:06:52;97162.97;;;12.83;100.00
13661;BME280;6903;49.480;11.102;2023-03-25T12:09:18;97163.22;;;12.98;100.00
13661;BME280;6903;49.480;11.102;2023-03-25T12:19:58;97145.75;;;13.72;100.00
13661;BME280;6903;49.480;11.102;2023-03-25T12:28:14;97115.72;;;14.45;100.00
13661;BME280;6903;49.480;11.102;2023-03-25T12:33:52;97101.16;;;14.25;100.00
13661;BME280;6903;49.480;11.102;2023-03-25T12:45:01;97093.13;;;14.89;100.00
13661;BME280;6903;49.480;11.102;2023-03-25T12:52:42;97099.28;;;14.98;100.00
13661;BME280;6903;49.480;11.102;2023-03-25T13:06:38;97081.16;;;14.93;100.00
13661;BME280;6903;49.480;11.102;2023-03-25T13:09:23;97077.72;;;14.85;100.00
13661;BME280;6903;49.480;11.102;2023-03-25T13:12:23;97090.50;;;14.81;100.00
13661;BME280;6903;49.480;11.102;2023-03-25T13:15:01;97094.50;;;14.45;100.00
13661;BME280;6903;49.480;11.102;2023-03-25T13:17:33;97096.44;;;14.03;100.00
13661;BME280;6903;49.480;11.102;2023-03-25T13:20:01;97114.09;;;13.21;100.00
13661;BME280;6903;49.480;11.102;2023-03-25T13:22:33;97111.91;;;12.91;100.00
13661;BME280;6903;49.480;11.102;2023-03-25T13:25:02;97118.31;;;12.80;100.00
13661;BME280;6903;49.480;11.102;2023-03-25T13:27:35;97115.19;;;12.84;100.00
13661;BME280;6903;49.480;11.102;2023-03-25T13:30:04;97115.75;;;12.96;100.00
13661;BME280;6903;49.480;11.102;2023-03-25T13:32:37;97101.19;;;13.00;100.00
13661;BME280;6903;49.480;11.102;2023-03-25T13:35:26;97122.75;;;12.79;100.00
13661;BME280;6903;49.480;11.102;2023-03-25T13:37:57;97110.03;;;12.57;100.00
13661;BME280;6903;49.480;11.102;2023-03-25T13:40:27;97142.03;;;12.29;100.00
13661;BME280;6903;49.480;11.102;2023-03-25T13:43:19;97154.13;;;12.14;100.00
13661;BME280;6903;49.480;11.102;2023-03-25T13:45:54;97118.84;;;11.70;100.00
13661;BME280;6903;49.480;11.102;2023-03-25T13:48:39;97109.72;;;11.28;100.00
13661;BME280;6903;49.480;11.102;2023-03-25T13:51:06;97120.44;;;11.26;100.00
13661;BME280;6903;49.480;11.102;2023-03-25T13:54:33;97114.19;;;11.55;100.00
13661;BME280;6903;49.480;11.102;2023-03-25T14:10:37;97171.16;;;13.49;100.00
13661;BME280;6903;49.480;11.102;2023-03-25T14:13:25;97165.81;;;12.46;100.00
13661;BME280;6903;49.480;11.102;2023-03-25T14:16:05;97168.94;;;11.53;100.00
13661;BME280;6903;49.480;11.102;2023-03-25T14:18:31;97159.31;;;10.88;100.00
13661;BME280;6903;49.480;11.102;2023-03-25T14:21:11;97139.00;;;10.52;100.00
13661;BME280;6903;49.480;11.102;2023-03-25T14:23:39;97129.19;;;10.16;100.00
13661;BME280;6903;49.480;11.102;2023-03-25T14:26:07;97123.75;;;9.98;100.00
13661;BME280;6903;49.480;11.102;2023-03-25T14:28:37;97131.50;;;9.99;100.00
13661;BME280;6903;49.480;11.102;2023-03-25T14:39:08;97131.38;;;10.39;100.00
13661;BME280;6903;49.480;11.102;2023-03-25T14:41:53;97133.34;;;10.47;100.00
13661;BME280;6903;49.480;11.102;2023-03-25T14:44:19;97130.13;;;10.53;100.00
13661;BME280;6903;49.480;11.102;2023-03-25T14:46:45;97134.41;;;10.54;100.00
13661;BME280;6903;49.480;11.102;2023-03-25T14:49:21;97134.00;;;10.68;100.00
13661;BME280;6903;49.480;11.102;2023-03-25T14:51:50;97129.22;;;10.81;100.00
13661;BME280;6903;49.480;11.102;2023-03-25T14:54:31;97134.84;;;11.05;100.00
13661;BME280;6903;49.480;11.102;2023-03-25T14:57:12;97127.75;;;11.32;100.00
13661;BME280;6903;49.480;11.102;2023-03-25T14:59:43;97133.47;;;11.55;100.00
13661;BME280;6903;49.480;11.102;2023-03-25T15:02:14;97121.94;;;11.83;100.00
13661;BME280;6903;49.480;11.102;2023-03-25T15:04:41;97120.00;;;12.03;100.00
13661;BME280;6903;49.480;11.102;2023-03-25T15:07:10;97113.56;;;12.05;100.00
13661;BME280;6903;49.480;11.102;2023-03-25T15:09:45;97095.69;;;12.17;100.00
13661;BME280;6903;49.480;11.102;2023-03-25T15:12:15;97109.03;;;12.15;100.00
13661;BME280;6903;49.480;11.102;2023-03-25T15:14:43;97116.72;;;12.26;100.00
13661;BME280;6903;49.480;11.102;2023-03-25T15:17:10;97101.22;;;12.49;100.00
13661;BME280;6903;49.480;11.102;2023-03-25T15:25:49;97110.41;;;12.62;100.00
13661;BME280;6903;49.480;11.102;2023-03-25T15:31:06;97111.06;;;12.64;100.00
13661;BME280;6903;49.480;11.102;2023-03-25T15:36:58;97107.75;;;12.37;100.00
13661;BME280;6903;49.480;11.102;2023-03-25T15:39:24;97105.84;;;12.29;100.00
13661;BME280;6903;49.480;11.102;2023-03-25T15:42:58;97113.19;;;12.35;100.00